sensor_id;sensor_type;location;lat;lon;timestamp;pressure;altitude;pressure_sealevel;temperature;humidity
13869;BME280;7004;48.206;16.402;2023-04-29T00:01:48;99447.59;;;13.96;100.00
13869;BME280;7004;48.206;16.402;2023-04-29T00:04:15;99441.25;;;14.20;100.00
13869;BME280;7004;48.206;16.402;2023-04-29T00:06:41;99442.81;;;14.23;100.00
13869;BME280;7004;48.206;16.402;2023-04-29T00:09:08;99440.25;;;14.21;100.00
13869;BME280;7004;48.206;16.402;2023-04-29T00:11:34;99440.59;;;14.28;100.00
13869;BME280;7004;48.206;16.402;2023-04-29T00:14:00;99440.25;;;14.21;100.00
13869;BME280;7004;48.206;16.402;2023-04-29T00:16:26;99449.72;;;14.14;100.00
13869;BME280;7004;48.206;16.402;2023-04-29T00:18:52;99442.53;;;13.50;100.00
13869;BME280;7004;48.206;16.402;2023-04-29T00:21:19;99446.25;;;14.02;100.00
13869;BME280;7004;48.206;16.402;2023-04-29T00:23:45;99441.94;;;14.01;100.00
13869;BME280;7004;48.206;16.402;2023-04-29T00:26:11;99443.31;;;14.16;100.00
13869;BME280;7004;48.206;16.402;2023-04-29T00:28:38;99438.97;;;14.36;100.00
13869;BME280;7004;48.206;16.402;2023-04-29T00:31:04;99440.22;;;14.32;100.00
13869;BME280;7004;48.206;16.402;2023-04-29T00:33:30;99442.91;;;14.21;100.00
13869;BME280;7004;48.206;16.402;2023-04-29T00:35:56;99437.72;;;13.87;100.00
13869;BME280;7004;48.206;16.402;2023-04-29T00:38:22;99433.91;;;14.12;100.00
13869;BME280;7004;48.206;16.402;2023-04-29T00:40:48;99435.97;;;14.09;100.00
13869;BME280;7004;48.206;16.402;2023-04-29T00:43:15;99445.88;;;14.07;100.00
13869;BME280;7004;48.206;16.402;2023-04-29T00:45:41;99430.25;;;13.81;100.00
13869;BME280;7004;48.206;16.402;2023-04-29T00:48:08;99428.69;;;14.11;100.00
13869;BME280;7004;48.206;16.402;2023-04-29T00:50:34;99437.31;;;14.35;100.00
13869;BME280;7004;48.206;16.402;2023-04-29T00:53:01;99437.41;;;14.34;100.00
13869;BME280;7004;48.206;16.402;2023-04-29T00:55:29;99434.00;;;14.11;100.00
13869;BME280;7004;48.206;16.402;2023-04-29T00:57:56;99438.13;;;13.83;100.00
13869;BME280;7004;48.206;16.402;2023-04-29T01:00:22;99433.34;;;13.97;100.00
13869;BME280;7004;48.206;16.402;2023-04-29T01:02:49;99430.53;;;14.10;100.00
13869;BME280;7004;48.206;16.402;2023-04-29T01:05:16;99429.38;;;14.24;100.00
13869;BME280;7004;48.206;16.402;2023-04-29T01:11:07;99432.50;;;13.97;100.00
13869;BME280;7004;48.206;16.402;2023-04-29T01:13:48;99425.38;;;13.97;100.00
13869;BME280;7004;48.206;16.402;2023-04-29T01:16:55;99423.31;;;14.01;100.00
13869;BME280;7004;48.206;16.402;2023-04-29T01:19:43;99420.81;;;13.88;100.00
13869;BME280;7004;48.206;16.402;2023-04-29T01:22:12;99433.78;;;14.14;100.00
13869;BME280;7004;48.206;16.402;2023-04-29T01:24:47;99436.97;;;14.29;100.00
13869;BME280;7004;48.206;16.402;2023-04-29T01:31:14;99429.72;;;14.31;100.00
13869;BME280;7004;48.206;16.402;2023-04-29T01:42:33;99426.28;;;13.75;100.00
13869;BME280;7004;48.206;16.402;2023-04-29T01:45:06;99424.19;;;13.90;100.00
13869;BME280;7004;48.206;16.402;2023-04-29T01:47:35;99423.03;;;13.72;100.00
13869;BME280;7004;48.206;16.402;2023-04-29T01:50:02;99425.34;;;14.09;100.00
13869;BME280;7004;48.206;16.402;2023-04-29T01:52:29;99427.06;;;13.98;100.00
13869;BME280;7004;48.206;16.402;2023-04-29T01:54:56;99425.69;;;13.72;100.00
13869;BME280;7004;48.206;16.402;2023-04-29T01:57:22;99429.69;;;13.77;100.00
13869;BME280;7004;48.206;16.402;2023-04-29T01:59:48;99437.59;;;13.89;100.00
13869;BME280;7004;48.206;16.402;2023-04-29T02:02:15;99435.19;;;13.31;100.00
13869;BME280;7004;48.206;16.402;2023-04-29T02:04:42;99425.97;;;13.58;100.00
13869;BME280;7004;48.206;16.402;2023-04-29T02:07:08;99432.69;;;13.73;100.00
13869;BME280;7004;48.206;16.402;2023-04-29T02:09:34;99422.34;;;13.59;100.00
13869;BME280;7004;48.206;16.402;2023-04-29T02:12:01;99428.59;;;13.69;100.00
13869;BME280;7004;48.206;16.402;2023-04-29T02:14:28;99420.38;;;13.72;100.00
13869;BME280;7004;48.206;16.402;2023-04-29T02:16:55;99422.69;;;13.54;100.00
13869;BME280;7004;48.206;16.402;2023-04-29T02:19:22;99425.88;;;13.91;100.00
13869;BME280;7004;48.206;16.402;2023-04-29T02:21:49;99424.53;;;13.97;100.00
13869;BME280;7004;48.206;16.402;2023-04-29T02:24:15;99430.78;;;13.64;100.00
13869;BME280;7004;48.206;16.402;2023-04-29T02:26:41;99428.97;;;13.64;100.00
13869;BME280;7004;48.206;16.402;2023-04-29T02:29:07;99433.03;;;13.91;100.00
13869;BME280;7004;48.206;16.402;2023-04-29T02:31:33;99423.34;;;13.90;100.00
13869;BME280;7004;48.206;16.402;2023-04-29T02:34:00;99419.59;;;13.92;100.00
13869;BME280;7004;48.206;16.402;2023-04-29T02:36:26;99420.06;;;13.97;100.00
13869;BME280;7004;48.206;16.402;2023-04-29T02:38:53;99418.38;;;13.96;100.00
13869;BME280;7004;48.206;16.402;2023-04-29T02:41:21;99415.00;;;13.94;100.00
13869;BME280;7004;48.206;16.402;2023-04-29T02:43:47;99420.56;;;13.91;100.00
13869;BME280;7004;48.206;16.402;2023-04-29T02:46:14;99426.78;;;13.81;100.00
13869;BME280;7004;48.206;16.402;2023-04-29T02:48:41;99422.56;;;13.67;100.00
13869;BME280;7004;48.206;16.402;2023-04-29T02:51:07;99418.28;;;13.87;100.00
13869;BME280;7004;48.206;16.402;2023-04-29T02:53:34;99413.75;;;14.31;100.00
13869;BME280;7004;48.206;16.402;2023-04-29T02:56:00;99416.50;;;13.76;100.00
13869;BME280;7004;48.206;16.402;2023-04-29T02:58:26;99404.69;;;13.69;100.00
13869;BME280;7004;48.206;16.402;2023-04-29T03:00:52;99401.63;;;13.85;100.00
13869;BME280;7004;48.206;16.402;2023-04-29T03:03:19;99404.47;;;14.04;100.00
13869;BME280;7004;48.206;16.402;2023-04-29T03:05:45;99396.44;;;13.83;100.00
13869;BME280;7004;48.206;16.402;2023-04-29T03:08:11;99398.44;;;14.02;100.00
13869;BME280;7004;48.206;16.402;2023-04-29T03:10:37;99401.03;;;14.13;100.00
13869;BME280;7004;48.206;16.402;2023-04-29T03:13:04;99405.88;;;14.08;100.00
13869;BME280;7004;48.206;16.402;2023-04-29T03:15:30;99410.56;;;14.37;100.00
13869;BME280;7004;48.206;16.402;2023-04-29T03:17:56;99414.38;;;13.25;100.00
13869;BME280;7004;48.206;16.402;2023-04-29T03:20:26;99415.50;;;13.33;100.00
13869;BME280;7004;48.206;16.402;2023-04-29T03:22:53;99415.50;;;13.45;100.00
13869;BME280;7004;48.206;16.402;2023-04-29T03:25:19;99421.19;;;13.29;100.00
13869;BME280;7004;48.206;16.402;2023-04-29T03:27:46;99424.31;;;13.34;100.00
13869;BME280;7004;48.206;16.402;2023-04-29T03:30:12;99416.22;;;13.47;100.00
13869;BME280;7004;48.206;16.402;2023-04-29T03:32:38;99410.78;;;13.37;100.00
13869;BME280;7004;48.206;16.402;2023-04-29T03:35:05;99415.41;;;13.79;100.00
13869;BME280;7004;48.206;16.402;2023-04-29T03:37:31;99415.81;;;13.63;100.00
13869;BME280;7004;48.206;16.402;2023-04-29T03:39:57;99423.03;;;13.72;100.00
13869;BME280;7004;48.206;16.402;2023-04-29T03:42:23;99418.34;;;13.64;100.00
13869;BME280;7004;48.206;16.402;2023-04-29T03:44:49;99419.16;;;13.76;100.00
13869;BME280;7004;48.206;16.402;2023-04-29T03:47:15;99420.69;;;13.46;100.00
13869;BME280;7004;48.206;16.402;2023-04-29T03:49:41;99424.25;;;13.57;100.00
13869;BME280;7004;48.206;16.402;2023-04-29T03:52:07;99416.25;;;13.79;100.00
13869;BME280;7004;48.206;16.402;2023-04-29T03:54:34;99419.69;;;13.59;100.00
13869;BME280;7004;48.206;16.402;2023-04-29T03:57:00;99425.75;;;13.93;100.00
13869;BME280;7004;48.206;16.402;2023-04-29T03:59:27;99418.97;;;13.45;100.00
13869;BME280;7004;48.206;16.402;2023-04-29T04:01:54;99424.66;;;13.52;100.00
13869;BME280;7004;48.206;16.402;2023-04-29T04:04:20;99420.16;;;13.64;100.00
13869;BME280;7004;48.206;16.402;2023-04-29T04:06:46;99422.94;;;13.51;100.00
13869;BME280;7004;48.206;16.402;2023-04-29T04:09:17;99412.72;;;13.46;100.00
13869;BME280;7004;48.206;16.402;2023-04-29T04:11:44;99417.88;;;13.59;100.00
13869;BME280;7004;48.206;16.402;2023-04-29T04:14:10;99419.06;;;13.66;100.00
13869;BME280;7004;48.206;16.402;2023-04-29T04:16:36;99424.00;;;13.71;100.00
13869;BME280;7004;48.206;16.402;2023-04-29T04:19:02;99417.75;;;13.61;100.00
13869;BME280;7004;48.206;16.402;2023-04-29T04:21:29;99427.50;;;13.71;100.00
13869;BME280;7004;48.206;16.402;2023-04-29T04:23:56;99429.91;;;13.74;100.00
13869;BME280;7004;48.206;16.402;2023-04-29T04:26:22;99429.28;;;13.82;100.00
13869;BME280;7004;48.206;16.402;2023-04-29T04:28:48;99434.84;;;13.79;100.00
13869;BME280;7004;48.206;16.402;2023-04-29T04:31:14;99427.25;;;13.74;100.00
13869;BME280;7004;48.206;16.402;2023-04-29T04:33:41;99424.47;;;13.76;100.00
13869;BME280;7004;48.206;16.402;2023-04-29T04:36:07;99436.56;;;13.69;100.00
13869;BME280;7004;48.206;16.402;2023-04-29T04:38:33;99436.78;;;13.77;100.00
13869;BME280;7004;48.206;16.402;2023-04-29T04:40:59;99432.81;;;13.83;100.00
13869;BME280;7004;48.206;16.402;2023-04-29T04:43:26;99432.34;;;13.77;100.00
13869;BME280;7004;48.206;16.402;2023-04-29T04:45:52;99429.91;;;13.74;100.00
13869;BME280;7004;48.206;16.402;2023-04-29T04:48:18;99426.19;;;13.66;100.00
13869;BME280;7004;48.206;16.402;2023-04-29T04:50:44;99428.75;;;13.56;100.00
13869;BME280;7004;48.206;16.402;2023-04-29T04:53:10;99425.34;;;13.65;100.00
13869;BME280;7004;48.206;16.402;2023-04-29T04:55:36;99427.16;;;13.65;100.00
13869;BME280;7004;48.206;16.402;2023-04-29T04:58:02;99424.72;;;13.73;100.00
13869;BME280;7004;48.206;16.402;2023-04-29T05:00:28;99430.31;;;14.02;100.00
13869;BME280;7004;48.206;16.402;2023-04-29T05:02:54;99430.94;;;13.94;100.00
13869;BME280;7004;48.206;16.402;2023-04-29T05:05:20;99436.88;;;13.87;100.00
13869;BME280;7004;48.206;16.402;2023-04-29T05:07:46;99431.25;;;13.69;100.00
13869;BME280;7004;48.206;16.402;2023-04-29T05:10:13;99436.84;;;13.98;100.00
13869;BME280;7004;48.206;16.402;2023-04-29T05:12:39;99432.34;;;14.10;100.00
13869;BME280;7004;48.206;16.402;2023-04-29T05:15:06;99438.88;;;14.38;100.00
13869;BME280;7004;48.206;16.402;2023-04-29T05:17:32;99433.91;;;14.12;100.00
13869;BME280;7004;48.206;16.402;2023-04-29T05:20:02;99429.88;;;14.18;100.00
13869;BME280;7004;48.206;16.402;2023-04-29T05:22:34;99430.03;;;14.16;100.00
13869;BME280;7004;48.206;16.402;2023-04-29T05:25:00;99422.63;;;13.88;100.00
13869;BME280;7004;48.206;16.402;2023-04-29T05:27:28;99433.50;;;13.96;100.00
13869;BME280;7004;48.206;16.402;2023-04-29T05:29:54;99432.00;;;14.03;100.00
13869;BME280;7004;48.206;16.402;2023-04-29T05:32:20;99430.84;;;13.96;100.00
13869;BME280;7004;48.206;16.402;2023-04-29T05:34:46;99438.84;;;13.73;100.00
13869;BME280;7004;48.206;16.402;2023-04-29T05:37:12;99443.03;;;13.87;100.00
13869;BME280;7004;48.206;16.402;2023-04-29T05:39:38;99441.78;;;14.03;100.00
13869;BME280;7004;48.206;16.402;2023-04-29T05:42:04;99439.13;;;14.03;100.00
13869;BME280;7004;48.206;16.402;2023-04-29T05:44:32;99448.22;;;13.89;100.00
13869;BME280;7004;48.206;16.402;2023-04-29T05:46:58;99457.50;;;13.40;100.00
13869;BME280;7004;48.206;16.402;2023-04-29T05:49:24;99452.25;;;13.83;100.00
13869;BME280;7004;48.206;16.402;2023-04-29T05:51:50;99452.63;;;14.11;100.00
13869;BME280;7004;48.206;16.402;2023-04-29T05:54:16;99457.28;;;14.30;100.00
13869;BME280;7004;48.206;16.402;2023-04-29T05:56:42;99448.50;;;14.18;100.00
13869;BME280;7004;48.206;16.402;2023-04-29T05:59:08;99451.75;;;14.22;100.00
13869;BME280;7004;48.206;16.402;2023-04-29T06:01:34;99452.34;;;14.46;100.00
13869;BME280;7004;48.206;16.402;2023-04-29T06:04:00;99462.00;;;14.58;100.00
13869;BME280;7004;48.206;16.402;2023-04-29T06:06:26;99462.53;;;14.41;100.00
13869;BME280;7004;48.206;16.402;2023-04-29T06:08:53;99464.53;;;14.28;100.00
13869;BME280;7004;48.206;16.402;2023-04-29T06:11:19;99466.28;;;14.38;100.00
13869;BME280;7004;48.206;16.402;2023-04-29T06:13:45;99470.72;;;14.49;100.00
13869;BME280;7004;48.206;16.402;2023-04-29T06:16:11;99466.34;;;14.80;100.00
13869;BME280;7004;48.206;16.402;2023-04-29T06:18:37;99465.78;;;14.56;100.00
13869;BME280;7004;48.206;16.402;2023-04-29T06:21:03;99466.56;;;14.24;100.00
13869;BME280;7004;48.206;16.402;2023-04-29T06:23:30;99464.00;;;14.34;100.00
13869;BME280;7004;48.206;16.402;2023-04-29T06:25:57;99468.09;;;14.70;100.00
13869;BME280;7004;48.206;16.402;2023-04-29T06:28:23;99472.41;;;14.50;100.00
13869;BME280;7004;48.206;16.402;2023-04-29T06:30:49;99468.50;;;14.87;100.00
13869;BME280;7004;48.206;16.402;2023-04-29T06:33:15;99472.53;;;14.49;100.00
13869;BME280;7004;48.206;16.402;2023-04-29T06:35:41;99460.38;;;14.88;100.00
13869;BME280;7004;48.206;16.402;2023-04-29T06:38:08;99465.31;;;14.93;100.00
13869;BME280;7004;48.206;16.402;2023-04-29T06:40:34;99461.97;;;15.00;100.00
13869;BME280;7004;48.206;16.402;2023-04-29T06:43:00;99464.88;;;15.18;100.00
13869;BME280;7004;48.206;16.402;2023-04-29T06:45:27;99470.75;;;14.91;100.00
13869;BME280;7004;48.206;16.402;2023-04-29T06:47:53;99468.09;;;14.70;100.00
13869;BME280;7004;48.206;16.402;2023-04-29T06:50:20;99474.47;;;15.10;100.00
13869;BME280;7004;48.206;16.402;2023-04-29T06:52:46;99477.53;;;15.66;100.00
13869;BME280;7004;48.206;16.402;2023-04-29T06:55:12;99481.97;;;15.56;100.00
13869;BME280;7004;48.206;16.402;2023-04-29T06:57:39;99486.28;;;15.78;100.00
13869;BME280;7004;48.206;16.402;2023-04-29T07:00:06;99477.06;;;15.51;100.00
13869;BME280;7004;48.206;16.402;2023-04-29T07:02:33;99476.78;;;14.93;100.00
13869;BME280;7004;48.206;16.402;2023-04-29T07:04:59;99465.59;;;16.01;99.09
13869;BME280;7004;48.206;16.402;2023-04-29T07:07:25;99470.53;;;16.45;96.96
13869;BME280;7004;48.206;16.402;2023-04-29T07:09:52;99458.28;;;16.52;94.48
13869;BME280;7004;48.206;16.402;2023-04-29T07:12:19;99465.00;;;16.07;94.76
13869;BME280;7004;48.206;16.402;2023-04-29T07:14:45;99467.00;;;16.15;94.18
13869;BME280;7004;48.206;16.402;2023-04-29T07:17:11;99459.84;;;15.65;96.64
13869;BME280;7004;48.206;16.402;2023-04-29T07:19:37;99458.41;;;16.70;93.73
13869;BME280;7004;48.206;16.402;2023-04-29T07:22:03;99456.47;;;17.84;91.57
13869;BME280;7004;48.206;16.402;2023-04-29T07:24:29;99457.44;;;17.93;83.84
13869;BME280;7004;48.206;16.402;2023-04-29T07:26:55;99462.78;;;18.28;80.39
13869;BME280;7004;48.206;16.402;2023-04-29T07:29:22;99461.91;;;16.99;87.52
13869;BME280;7004;48.206;16.402;2023-04-29T07:31:48;99461.69;;;17.48;86.96
13869;BME280;7004;48.206;16.402;2023-04-29T07:34:14;99462.50;;;17.58;89.66
13869;BME280;7004;48.206;16.402;2023-04-29T07:36:40;99469.25;;;17.25;92.54
13869;BME280;7004;48.206;16.402;2023-04-29T07:39:06;99466.47;;;17.17;91.71
13869;BME280;7004;48.206;16.402;2023-04-29T07:41:33;99477.63;;;16.93;89.40
13869;BME280;7004;48.206;16.402;2023-04-29T07:43:59;99478.56;;;17.11;86.03
13869;BME280;7004;48.206;16.402;2023-04-29T07:46:25;99471.56;;;18.39;81.48
13869;BME280;7004;48.206;16.402;2023-04-29T07:48:51;99480.84;;;18.26;85.19
13869;BME280;7004;48.206;16.402;2023-04-29T07:51:17;99477.06;;;18.01;83.61
13869;BME280;7004;48.206;16.402;2023-04-29T07:53:43;99479.09;;;17.24;89.35
13869;BME280;7004;48.206;16.402;2023-04-29T07:56:10;99474.81;;;17.69;86.54
13869;BME280;7004;48.206;16.402;2023-04-29T07:58:36;99479.09;;;17.24;87.91
13869;BME280;7004;48.206;16.402;2023-04-29T08:01:09;99478.06;;;18.36;82.13
13869;BME280;7004;48.206;16.402;2023-04-29T08:03:37;99471.09;;;18.07;90.43
13869;BME280;7004;48.206;16.402;2023-04-29T08:06:03;99468.50;;;17.70;88.80
13869;BME280;7004;48.206;16.402;2023-04-29T08:08:30;99463.31;;;17.41;90.06
13869;BME280;7004;48.206;16.402;2023-04-29T08:10:57;99460.72;;;18.22;89.55
13869;BME280;7004;48.206;16.402;2023-04-29T08:13:23;99466.13;;;18.48;87.23
13869;BME280;7004;48.206;16.402;2023-04-29T08:15:50;99472.69;;;18.00;90.58
13869;BME280;7004;48.206;16.402;2023-04-29T08:18:16;99470.41;;;18.77;88.49
13869;BME280;7004;48.206;16.402;2023-04-29T08:20:43;99472.09;;;18.06;84.59
13869;BME280;7004;48.206;16.402;2023-04-29T08:23:09;99488.63;;;17.27;85.69
13869;BME280;7004;48.206;16.402;2023-04-29T08:25:40;99483.72;;;17.22;84.47
13869;BME280;7004;48.206;16.402;2023-04-29T08:28:07;99478.63;;;17.66;84.08
13869;BME280;7004;48.206;16.402;2023-04-29T08:30:38;99481.97;;;18.24;83.43
13869;BME280;7004;48.206;16.402;2023-04-29T08:33:04;99474.53;;;18.71;82.94
13869;BME280;7004;48.206;16.402;2023-04-29T08:35:30;99473.19;;;18.31;85.34
13869;BME280;7004;48.206;16.402;2023-04-29T08:37:57;99480.31;;;19.37;80.00
13869;BME280;7004;48.206;16.402;2023-04-29T08:40:23;99478.91;;;19.85;74.31
13869;BME280;7004;48.206;16.402;2023-04-29T08:42:49;99476.31;;;19.67;79.36
13869;BME280;7004;48.206;16.402;2023-04-29T08:45:19;99486.91;;;19.77;72.72
13869;BME280;7004;48.206;16.402;2023-04-29T08:47:48;99483.25;;;18.91;73.85
13869;BME280;7004;48.206;16.402;2023-04-29T08:50:16;99477.22;;;18.53;76.27
13869;BME280;7004;48.206;16.402;2023-04-29T08:52:43;99480.28;;;18.59;78.71
13869;BME280;7004;48.206;16.402;2023-04-29T08:55:09;99477.50;;;17.97;82.49
13869;BME280;7004;48.206;16.402;2023-04-29T08:57:36;99474.41;;;18.19;86.15
13869;BME280;7004;48.206;16.402;2023-04-29T09:00:08;99469.09;;;17.92;86.71
13869;BME280;7004;48.206;16.402;2023-04-29T09:02:48;99468.44;;;18.25;85.21
13869;BME280;7004;48.206;16.402;2023-04-29T09:05:14;99465.06;;;18.05;85.28
13869;BME280;7004;48.206;16.402;2023-04-29T09:07:41;99471.06;;;17.89;85.57
13869;BME280;7004;48.206;16.402;2023-04-29T09:10:09;99470.53;;;17.86;85.36
13869;BME280;7004;48.206;16.402;2023-04-29T09:12:36;99484.91;;;17.47;88.63
13869;BME280;7004;48.206;16.402;2023-04-29T09:15:03;99491.66;;;17.79;89.40
13869;BME280;7004;48.206;16.402;2023-04-29T09:17:46;99484.53;;;17.80;88.83
13869;BME280;7004;48.206;16.402;2023-04-29T09:22:56;99488.03;;;17.80;92.81
13869;BME280;7004;48.206;16.402;2023-04-29T09:25:23;99493.56;;;17.22;94.55
13869;BME280;7004;48.206;16.402;2023-04-29T09:27:49;99491.59;;;17.34;93.27
13869;BME280;7004;48.206;16.402;2023-04-29T09:30:16;99489.81;;;17.15;94.10
13869;BME280;7004;48.206;16.402;2023-04-29T09:32:44;99485.16;;;17.17;94.42
13869;BME280;7004;48.206;16.402;2023-04-29T09:35:27;99487.69;;;17.18;94.69
13869;BME280;7004;48.206;16.402;2023-04-29T09:38:11;99492.25;;;16.59;100.00
13869;BME280;7004;48.206;16.402;2023-04-29T09:40:39;99500.97;;;16.62;99.54
13869;BME280;7004;48.206;16.402;2023-04-29T09:43:15;99503.50;;;16.24;100.00
13869;BME280;7004;48.206;16.402;2023-04-29T09:45:47;99507.16;;;16.62;100.00
13869;BME280;7004;48.206;16.402;2023-04-29T09:48:15;99500.69;;;16.65;100.00
13869;BME280;7004;48.206;16.402;2023-04-29T09:50:42;99494.34;;;16.75;100.00
13869;BME280;7004;48.206;16.402;2023-04-29T09:53:10;99505.75;;;16.77;100.00
13869;BME280;7004;48.206;16.402;2023-04-29T09:56:01;99499.09;;;17.48;100.00
13869;BME280;7004;48.206;16.402;2023-04-29T09:58:33;99496.16;;;17.51;99.50
13869;BME280;7004;48.206;16.402;2023-04-29T10:01:03;99499.25;;;18.47;97.09
13869;BME280;7004;48.206;16.402;2023-04-29T10:06:00;99493.88;;;18.83;96.49
13869;BME280;7004;48.206;16.402;2023-04-29T10:08:28;99494.28;;;18.52;93.86
13869;BME280;7004;48.206;16.402;2023-04-29T10:10:58;99492.38;;;19.33;89.92
13869;BME280;7004;48.206;16.402;2023-04-29T10:13:25;99486.16;;;18.44;94.18
13869;BME280;7004;48.206;16.402;2023-04-29T10:15:59;99484.22;;;17.73;94.26
13869;BME280;7004;48.206;16.402;2023-04-29T10:18:36;99483.19;;;18.11;92.99
13869;BME280;7004;48.206;16.402;2023-04-29T10:21:07;99482.78;;;18.06;92.31
13869;BME280;7004;48.206;16.402;2023-04-29T10:23:41;99478.63;;;17.66;93.84
13869;BME280;7004;48.206;16.402;2023-04-29T10:26:11;99479.72;;;17.09;94.46
13869;BME280;7004;48.206;16.402;2023-04-29T10:28:39;99488.28;;;17.12;97.32
13869;BME280;7004;48.206;16.402;2023-04-29T10:31:08;99473.13;;;17.40;96.06
13869;BME280;7004;48.206;16.402;2023-04-29T10:33:35;99470.56;;;18.58;91.51
13869;BME280;7004;48.206;16.402;2023-04-29T10:36:02;99461.06;;;17.92;92.30
13869;BME280;7004;48.206;16.402;2023-04-29T10:38:35;99452.19;;;17.63;92.48
13869;BME280;7004;48.206;16.402;2023-04-29T10:41:22;99450.47;;;17.44;94.69
13869;BME280;7004;48.206;16.402;2023-04-29T10:43:54;99451.81;;;17.31;95.94
13869;BME280;7004;48.206;16.402;2023-04-29T10:46:25;99441.56;;;17.81;93.99
13869;BME280;7004;48.206;16.402;2023-04-29T10:49:02;99443.28;;;17.17;96.61
13869;BME280;7004;48.206;16.402;2023-04-29T10:56:51;99451.69;;;18.05;88.74
13869;BME280;7004;48.206;16.402;2023-04-29T11:02:09;99446.56;;;17.39;95.62
13869;BME280;7004;48.206;16.402;2023-04-29T11:05:09;99439.00;;;17.34;93.76
13869;BME280;7004;48.206;16.402;2023-04-29T11:07:35;99424.41;;;17.56;92.54
13869;BME280;7004;48.206;16.402;2023-04-29T11:10:02;99423.66;;;18.27;87.83
13869;BME280;7004;48.206;16.402;2023-04-29T11:12:28;99421.59;;;19.52;85.22
13869;BME280;7004;48.206;16.402;2023-04-29T11:14:57;99416.75;;;18.87;87.17
13869;BME280;7004;48.206;16.402;2023-04-29T11:17:36;99420.25;;;18.61;88.50
13869;BME280;7004;48.206;16.402;2023-04-29T11:20:04;99419.81;;;18.30;87.49
13869;BME280;7004;48.206;16.402;2023-04-29T11:22:36;99429.28;;;18.60;89.39
13869;BME280;7004;48.206;16.402;2023-04-29T11:25:05;99421.38;;;18.59;86.16
13869;BME280;7004;48.206;16.402;2023-04-29T11:27:33;99420.53;;;18.14;90.19
13869;BME280;7004;48.206;16.402;2023-04-29T11:30:02;99417.22;;;17.84;87.74
13869;BME280;7004;48.206;16.402;2023-04-29T11:32:33;99413.59;;;18.65;86.14
13869;BME280;7004;48.206;16.402;2023-04-29T11:35:07;99427.81;;;18.66;87.04
13869;BME280;7004;48.206;16.402;2023-04-29T11:37:34;99421.03;;;18.00;91.27
13869;BME280;7004;48.206;16.402;2023-04-29T11:40:01;99420.25;;;18.61;88.32
13869;BME280;7004;48.206;16.402;2023-04-29T11:42:27;99421.22;;;17.98;91.64
13869;BME280;7004;48.206;16.402;2023-04-29T11:44:54;99418.22;;;18.19;92.54
13869;BME280;7004;48.206;16.402;2023-04-29T11:47:27;99409.50;;;17.99;92.10
13869;BME280;7004;48.206;16.402;2023-04-29T11:50:03;99408.28;;;18.11;90.16
13869;BME280;7004;48.206;16.402;2023-04-29T11:52:30;99407.28;;;18.30;88.29
13869;BME280;7004;48.206;16.402;2023-04-29T11:54:57;99405.22;;;17.88;91.89
13869;BME280;7004;48.206;16.402;2023-04-29T11:57:25;99410.13;;;18.29;91.32
13869;BME280;7004;48.206;16.402;2023-04-29T11:59:51;99413.16;;;18.78;88.17
13869;BME280;7004;48.206;16.402;2023-04-29T12:02:22;99417.06;;;18.40;87.70
13869;BME280;7004;48.206;16.402;2023-04-29T12:04:53;99422.34;;;17.96;89.49
13869;BME280;7004;48.206;16.402;2023-04-29T12:07:19;99415.28;;;18.48;88.13
13869;BME280;7004;48.206;16.402;2023-04-29T12:09:45;99408.75;;;18.07;87.86
13869;BME280;7004;48.206;16.402;2023-04-29T12:12:13;99400.53;;;17.45;93.65
13869;BME280;7004;48.206;16.402;2023-04-29T12:14:40;99416.69;;;17.71;91.11
13869;BME280;7004;48.206;16.402;2023-04-29T12:17:08;99417.31;;;17.65;92.14
13869;BME280;7004;48.206;16.402;2023-04-29T12:19:35;99414.34;;;17.68;92.59
13869;BME280;7004;48.206;16.402;2023-04-29T12:22:03;99405.31;;;17.51;93.77
13869;BME280;7004;48.206;16.402;2023-04-29T12:24:35;99412.47;;;17.23;96.96
13869;BME280;7004;48.206;16.402;2023-04-29T12:27:03;99421.06;;;17.17;99.43
13869;BME280;7004;48.206;16.402;2023-04-29T12:29:38;99429.13;;;17.35;98.39
13869;BME280;7004;48.206;16.402;2023-04-29T12:32:06;99422.66;;;17.65;97.47
13869;BME280;7004;48.206;16.402;2023-04-29T12:34:32;99424.50;;;17.37;100.00
13869;BME280;7004;48.206;16.402;2023-04-29T12:36:59;99417.09;;;17.31;100.00
13869;BME280;7004;48.206;16.402;2023-04-29T12:39:26;99429.47;;;17.22;100.00
13869;BME280;7004;48.206;16.402;2023-04-29T12:42:02;99427.69;;;17.13;100.00
13869;BME280;7004;48.206;16.402;2023-04-29T12:44:35;99427.63;;;17.22;100.00
13869;BME280;7004;48.206;16.402;2023-04-29T12:47:09;99429.72;;;16.91;100.00
13869;BME280;7004;48.206;16.402;2023-04-29T12:49:36;99440.13;;;17.32;100.00
13869;BME280;7004;48.206;16.402;2023-04-29T12:52:05;99454.72;;;17.37;100.00
13869;BME280;7004;48.206;16.402;2023-04-29T12:54:39;99468.41;;;17.24;100.00
13869;BME280;7004;48.206;16.402;2023-04-29T12:57:09;99456.28;;;16.93;100.00
13869;BME280;7004;48.206;16.402;2023-04-29T12:59:36;99450.53;;;16.97;100.00
13869;BME280;7004;48.206;16.402;2023-04-29T13:02:03;99451.97;;;16.53;100.00
13869;BME280;7004;48.206;16.402;2023-04-29T13:04:29;99431.31;;;16.65;100.00
13869;BME280;7004;48.206;16.402;2023-04-29T13:06:55;99412.16;;;16.89;100.00
13869;BME280;7004;48.206;16.402;2023-04-29T13:09:28;99416.22;;;17.30;100.00
13869;BME280;7004;48.206;16.402;2023-04-29T13:11:55;99416.91;;;17.05;100.00
13869;BME280;7004;48.206;16.402;2023-04-29T13:14:22;99409.94;;;16.84;100.00
13869;BME280;7004;48.206;16.402;2023-04-29T13:16:48;99414.16;;;17.24;100.00
13869;BME280;7004;48.206;16.402;2023-04-29T13:19:14;99401.09;;;17.49;100.00
13869;BME280;7004;48.206;16.402;2023-04-29T13:21:40;99405.69;;;18.02;100.00
13869;BME280;7004;48.206;16.402;2023-04-29T13:24:06;99403.31;;;18.17;100.00
13869;BME280;7004;48.206;16.402;2023-04-29T13:26:33;99404.41;;;18.24;100.00